createdAt,value
2023-01-23T00:04:55.169Z,10.10
2023-01-23T00:09:55.111Z,12.10
2023-01-23T00:14:55.057Z,10.30
2023-01-23T00:19:55.003Z,11.10
2023-01-23T00:24:54.917Z,10.20
2023-01-23T00:29:54.855Z,12.00
2023-01-23T00:34:54.794Z,12.10
2023-01-23T00:39:54.739Z,9.60
2023-01-23T00:44:54.673Z,10.10
2023-01-23T00:49:54.615Z,10.90
2023-01-23T00:54:54.541Z,12.30
2023-01-23T00:59:54.488Z,12.70
2023-01-23T01:04:54.416Z,9.80
2023-01-23T01:09:54.362Z,10.90
2023-01-23T01:14:54.295Z,12.10
2023-01-23T01:19:54.237Z,13.50
2023-01-23T01:24:54.162Z,13.50
2023-01-23T01:29:54.103Z,8.70
2023-01-23T01:34:54.042Z,10.50
2023-01-23T01:39:53.973Z,9.90
2023-01-23T01:44:53.922Z,11.50
2023-01-23T01:49:53.851Z,10.60
2023-01-23T01:54:53.782Z,9.40
2023-01-23T01:59:53.731Z,9.20
2023-01-23T02:04:53.656Z,11.80
2023-01-23T02:09:53.601Z,9.70
2023-01-23T02:14:53.533Z,10.20
2023-01-23T02:19:53.523Z,8.30
2023-01-23T02:24:53.401Z,9.50
2023-01-23T02:29:53.351Z,9.10
2023-01-23T02:34:53.280Z,10.60
2023-01-23T02:39:53.221Z,9.80
2023-01-23T02:44:53.162Z,9.20
2023-01-23T02:49:53.098Z,10.90
2023-01-23T02:54:53.037Z,11.40
2023-01-23T02:59:53.068Z,11.20
2023-01-23T03:04:52.909Z,9.90
2023-01-23T03:09:52.851Z,10.00
2023-01-23T03:14:52.795Z,10.60
2023-01-23T03:19:52.728Z,9.20
2023-01-23T03:24:52.659Z,8.90
2023-01-23T03:29:52.606Z,7.90
2023-01-23T03:34:52.538Z,10.30
2023-01-23T03:39:52.480Z,11.50
2023-01-23T03:44:52.420Z,6.10
2023-01-23T03:49:52.360Z,7.40
2023-01-23T03:54:52.295Z,10.20
2023-01-23T03:59:52.227Z,7.40
2023-01-23T04:04:52.172Z,9.60
2023-01-23T04:09:52.117Z,11.80
2023-01-23T04:14:52.041Z,8.90
2023-01-23T04:19:52.013Z,10.00
2023-01-23T04:24:51.917Z,11.20
2023-01-23T04:29:51.863Z,9.80
2023-01-23T04:34:51.798Z,12.10
2023-01-23T04:39:51.726Z,9.00
2023-01-23T04:44:51.669Z,8.60
2023-01-23T04:49:51.610Z,9.30
2023-01-23T04:54:51.543Z,8.30
2023-01-23T04:59:51.479Z,10.20
2023-01-23T05:04:51.416Z,10.70
2023-01-23T05:09:51.355Z,10.40
2023-01-23T05:14:51.297Z,9.70
2023-01-23T05:19:51.226Z,10.30
2023-01-23T05:24:51.166Z,10.10
2023-01-23T05:29:51.105Z,10.40
2023-01-23T05:34:51.036Z,9.10
2023-01-23T05:39:50.985Z,8.40
2023-01-23T05:44:50.921Z,8.70
2023-01-23T05:49:50.854Z,11.70
2023-01-23T05:54:50.785Z,8.60
2023-01-23T05:59:50.725Z,10.60
2023-01-23T06:04:50.672Z,10.20
2023-01-23T06:09:50.618Z,11.00
2023-01-23T06:14:50.540Z,10.40
2023-01-23T06:19:50.474Z,11.80
2023-01-23T06:24:50.405Z,10.30
2023-01-23T06:29:50.346Z,11.50
2023-01-23T06:34:50.287Z,8.50
2023-01-23T06:39:50.224Z,11.80
2023-01-23T06:44:50.163Z,10.00
2023-01-23T06:49:50.095Z,10.30
2023-01-23T06:54:50.062Z,11.10
2023-01-23T06:59:49.967Z,11.80
2023-01-23T07:04:49.906Z,8.60
2023-01-23T07:09:49.855Z,12.30
2023-01-23T07:14:49.788Z,9.00
2023-01-23T07:19:49.722Z,10.90
2023-01-23T07:24:49.672Z,12.00
2023-01-23T07:29:49.604Z,9.60
2023-01-23T07:34:49.535Z,9.70
2023-01-23T07:39:49.473Z,9.30
2023-01-23T07:44:49.412Z,11.30
2023-01-23T07:49:49.351Z,12.30
2023-01-23T07:54:49.287Z,13.00
2023-01-23T07:59:49.232Z,13.50
2023-01-23T08:04:49.153Z,8.90
2023-01-23T08:09:49.105Z,12.10
2023-01-23T08:14:49.032Z,9.70
2023-01-23T08:19:48.973Z,12.20
2023-01-23T08:24:48.914Z,11.30
2023-01-23T08:29:48.845Z,9.40
2023-01-23T08:34:48.894Z,11.40
2023-01-23T08:39:48.732Z,10.40
2023-01-23T08:44:48.662Z,10.10
2023-01-23T08:49:48.592Z,9.10
2023-01-23T08:54:48.530Z,9.90
2023-01-23T08:59:48.476Z,9.30
2023-01-23T09:04:48.432Z,8.00
2023-01-23T09:09:48.355Z,10.00
2023-01-23T09:14:48.296Z,9.10
2023-01-23T09:19:48.222Z,12.60
2023-01-23T09:24:48.160Z,11.10
2023-01-23T09:29:48.099Z,11.20
2023-01-23T09:34:48.041Z,11.90
2023-01-23T09:39:47.982Z,9.20
2023-01-23T09:44:47.921Z,11.00
2023-01-23T09:49:47.870Z,9.70
2023-01-23T09:54:47.806Z,8.90
2023-01-23T09:59:59.810Z,9.20
2023-01-23T10:04:48.691Z,6.40
2023-01-23T10:09:47.609Z,11.40
2023-01-23T10:14:47.550Z,10.50
2023-01-23T10:19:47.490Z,9.70
2023-01-23T10:24:47.431Z,9.50
2023-01-23T10:29:47.359Z,8.80
2023-01-23T10:34:47.310Z,8.60
2023-01-23T10:39:47.240Z,9.50
2023-01-23T10:44:47.191Z,8.40
2023-01-23T10:49:47.139Z,7.50
2023-01-23T10:54:47.170Z,9.60
2023-01-23T10:59:47.002Z,9.00
2023-01-23T11:04:46.945Z,9.30
2023-01-23T11:09:46.908Z,6.70
2023-01-23T11:14:46.822Z,7.00
2023-01-23T11:19:46.755Z,6.20
2023-01-23T11:24:46.698Z,8.90
2023-01-23T11:29:46.666Z,6.20
2023-01-23T11:34:46.568Z,9.30
2023-01-23T11:39:46.526Z,7.10
2023-01-23T11:44:46.894Z,6.60
2023-01-23T11:49:46.438Z,7.80
2023-01-23T11:54:46.327Z,5.10
2023-01-23T11:59:46.269Z,6.00
2023-01-23T12:04:46.220Z,7.00
2023-01-23T12:09:46.156Z,5.60
2023-01-23T12:14:46.085Z,6.70
2023-01-23T12:19:46.019Z,6.90
2023-01-23T12:24:45.956Z,6.70
2023-01-23T12:29:45.897Z,7.10
2023-01-23T12:34:45.860Z,6.80
2023-01-23T12:39:45.780Z,4.60
2023-01-23T12:44:45.716Z,6.20
2023-01-23T12:49:45.647Z,6.70
2023-01-23T12:54:45.589Z,4.70
2023-01-23T12:59:45.524Z,5.40
2023-01-23T13:04:45.466Z,7.50
2023-01-23T13:09:45.410Z,6.40
2023-01-23T13:15:06.943Z,6.60
2023-01-23T13:19:46.289Z,6.50
2023-01-23T13:24:45.225Z,6.20
2023-01-23T13:29:45.163Z,6.00
2023-01-23T13:34:45.107Z,9.10
2023-01-23T13:39:45.556Z,6.00
2023-01-23T13:44:44.987Z,7.70
2023-01-23T13:49:44.938Z,6.40
2023-01-23T13:54:44.882Z,6.30
2023-01-23T13:59:44.798Z,6.60
2023-01-23T14:04:44.759Z,6.90
2023-01-23T14:09:44.665Z,5.70
2023-01-23T14:14:44.613Z,5.90
2023-01-23T14:19:44.546Z,7.80
2023-01-23T14:24:44.516Z,6.40
2023-01-23T14:29:44.448Z,6.90
2023-01-23T14:34:44.377Z,6.50
2023-01-23T14:39:52.824Z,7.30
2023-01-23T14:44:45.280Z,6.80
2023-01-23T14:49:44.183Z,6.70
2023-01-23T14:54:53.446Z,8.10
2023-01-23T14:59:45.062Z,7.00
2023-01-23T15:04:43.997Z,7.30
2023-01-23T15:09:43.916Z,8.90
2023-01-23T15:14:43.884Z,9.70
2023-01-23T15:19:43.818Z,9.70
2023-01-23T15:24:43.751Z,6.70
2023-01-23T15:29:43.685Z,5.20
2023-01-23T15:34:43.643Z,6.80
2023-01-23T15:39:43.566Z,7.40
2023-01-23T15:44:43.522Z,7.90
2023-01-23T15:49:43.442Z,5.00
2023-01-23T15:54:43.395Z,6.70
2023-01-23T15:59:43.320Z,5.70
2023-01-23T16:04:43.263Z,5.60
2023-01-23T16:09:43.196Z,5.40
2023-01-23T16:14:43.152Z,6.10
2023-01-23T16:19:43.074Z,7.90
2023-01-23T16:24:43.027Z,6.50
2023-01-23T16:29:42.954Z,6.50
2023-01-23T16:34:42.893Z,8.70
2023-01-23T16:39:42.917Z,6.50
2023-01-23T16:44:43.176Z,8.30
2023-01-23T16:49:51.906Z,6.70
2023-01-23T16:54:43.672Z,6.10
2023-01-23T16:59:42.594Z,7.00
2023-01-23T17:04:42.538Z,7.10
2023-01-23T17:09:42.475Z,6.10
2023-01-23T17:14:42.411Z,7.40
2023-01-23T17:19:42.358Z,5.70
2023-01-23T17:24:42.286Z,6.60
2023-01-23T17:29:42.222Z,6.80
2023-01-23T17:34:49.997Z,8.00
2023-01-23T17:39:43.093Z,8.20
2023-01-23T17:44:42.041Z,6.70
2023-01-23T17:49:41.976Z,8.50
2023-01-23T17:54:41.924Z,6.50
2023-01-23T17:59:41.856Z,5.60
2023-01-23T18:04:41.802Z,10.30
2023-01-23T18:09:41.731Z,8.10
2023-01-23T18:14:41.687Z,10.00
2023-01-23T18:19:41.618Z,7.50
2023-01-23T18:24:41.552Z,9.80
2023-01-23T18:29:41.491Z,9.00
2023-01-23T18:34:41.442Z,9.20
2023-01-23T18:39:41.372Z,10.20
2023-01-23T18:44:41.304Z,11.30
2023-01-23T18:49:41.241Z,8.20
2023-01-23T18:54:41.191Z,8.10
2023-01-23T18:59:41.121Z,9.40
2023-01-23T19:04:41.063Z,7.90
2023-01-23T19:09:40.999Z,6.60
2023-01-23T19:14:40.939Z,6.30
2023-01-23T19:19:40.904Z,8.60
2023-01-23T19:24:40.820Z,7.40
2023-01-23T19:29:40.748Z,7.20
2023-01-23T19:34:40.692Z,8.50
2023-01-23T19:39:40.631Z,8.90
2023-01-23T19:44:40.572Z,7.40
2023-01-23T19:49:40.508Z,8.10
2023-01-23T19:54:40.449Z,11.20
2023-01-23T19:59:40.388Z,8.90
2023-01-23T20:04:40.321Z,8.20
2023-01-23T20:09:40.272Z,7.10
2023-01-23T20:14:40.204Z,6.60
2023-01-23T20:19:40.146Z,6.30
2023-01-23T20:24:40.084Z,8.50
2023-01-23T20:29:40.015Z,7.20
2023-01-23T20:34:39.956Z,8.00
2023-01-23T20:39:40.089Z,6.40
2023-01-23T20:44:40.831Z,8.80
2023-01-23T20:49:39.759Z,6.50
2023-01-23T20:54:39.721Z,5.60
2023-01-23T20:59:39.648Z,6.00
2023-01-23T21:04:39.601Z,8.00
2023-01-23T21:09:39.523Z,7.40
2023-01-23T21:14:39.457Z,10.70
2023-01-23T21:19:39.398Z,9.20
2023-01-23T21:24:39.345Z,6.80
2023-01-23T21:29:39.287Z,7.40
2023-01-23T21:34:39.218Z,8.00
2023-01-23T21:39:39.146Z,7.30
2023-01-23T21:44:39.088Z,6.90
2023-01-23T21:49:39.029Z,6.80
2023-01-23T21:54:38.977Z,5.90
2023-01-23T21:59:38.915Z,7.00
2023-01-23T22:04:38.875Z,5.90
2023-01-23T22:09:38.777Z,6.50
2023-01-23T22:14:38.730Z,6.30
2023-01-23T22:19:38.655Z,5.90
2023-01-23T22:24:38.596Z,5.30
2023-01-23T22:29:38.538Z,5.40
2023-01-23T22:34:38.476Z,5.30
2023-01-23T22:39:38.416Z,6.20
2023-01-23T22:44:38.355Z,7.50
2023-01-23T22:49:38.295Z,6.00
2023-01-23T22:54:38.245Z,4.30
2023-01-23T22:59:38.166Z,4.80
2023-01-23T23:04:38.125Z,5.80
2023-01-23T23:09:38.049Z,7.00
2023-01-23T23:14:37.987Z,4.30
2023-01-23T23:19:37.945Z,4.60
2023-01-23T23:24:37.878Z,4.80
2023-01-23T23:29:37.795Z,5.00
2023-01-23T23:34:37.742Z,4.80
2023-01-23T23:39:37.675Z,3.80
2023-01-23T23:44:37.624Z,5.50
2023-01-23T23:49:37.555Z,7.20
2023-01-23T23:54:37.494Z,4.40
2023-01-23T23:59:37.435Z,3.50
